sensor_id;sensor_type;location;lat;lon;timestamp;temperature;humidity
2999;DHT22;1509;51.964;7.628;2023-03-23T00:01:09;10.80;99.90
2999;DHT22;1509;51.964;7.628;2023-03-23T00:03:36;10.70;99.90
2999;DHT22;1509;51.964;7.628;2023-03-23T00:06:02;10.60;99.90
2999;DHT22;1509;51.964;7.628;2023-03-23T00:08:31;10.60;99.90
2999;DHT22;1509;51.964;7.628;2023-03-23T00:10:59;10.80;99.90
2999;DHT22;1509;51.964;7.628;2023-03-23T00:13:27;10.60;99.90
2999;DHT22;1509;51.964;7.628;2023-03-23T00:15:53;10.60;99.90
2999;DHT22;1509;51.964;7.628;2023-03-23T00:18:20;10.60;99.90
2999;DHT22;1509;51.964;7.628;2023-03-23T00:20:53;10.50;99.90
2999;DHT22;1509;51.964;7.628;2023-03-23T00:23:21;10.50;99.90
2999;DHT22;1509;51.964;7.628;2023-03-23T00:25:55;10.50;99.90
2999;DHT22;1509;51.964;7.628;2023-03-23T00:28:25;10.60;99.90
2999;DHT22;1509;51.964;7.628;2023-03-23T00:31:02;10.60;99.90
2999;DHT22;1509;51.964;7.628;2023-03-23T00:33:31;10.60;99.90
2999;DHT22;1509;51.964;7.628;2023-03-23T00:36:04;10.60;99.90
2999;DHT22;1509;51.964;7.628;2023-03-23T00:38:34;10.60;99.90
2999;DHT22;1509;51.964;7.628;2023-03-23T00:40:59;10.90;99.90
2999;DHT22;1509;51.964;7.628;2023-03-23T00:43:28;10.60;99.90
2999;DHT22;1509;51.964;7.628;2023-03-23T00:45:58;10.60;99.90
2999;DHT22;1509;51.964;7.628;2023-03-23T00:48:27;10.60;99.90
2999;DHT22;1509;51.964;7.628;2023-03-23T00:50:53;10.70;99.90
2999;DHT22;1509;51.964;7.628;2023-03-23T00:55:46;10.60;99.90
2999;DHT22;1509;51.964;7.628;2023-03-23T00:58:13;10.70;99.90
2999;DHT22;1509;51.964;7.628;2023-03-23T01:00:39;10.70;99.90
2999;DHT22;1509;51.964;7.628;2023-03-23T01:03:05;10.70;99.90
2999;DHT22;1509;51.964;7.628;2023-03-23T01:05:35;10.60;99.90
2999;DHT22;1509;51.964;7.628;2023-03-23T01:08:02;10.70;99.90
2999;DHT22;1509;51.964;7.628;2023-03-23T01:10:28;10.70;99.90
2999;DHT22;1509;51.964;7.628;2023-03-23T01:13:00;10.70;99.90
2999;DHT22;1509;51.964;7.628;2023-03-23T01:15:27;10.70;99.90
2999;DHT22;1509;51.964;7.628;2023-03-23T01:17:53;10.80;99.90
2999;DHT22;1509;51.964;7.628;2023-03-23T01:20:19;10.80;99.90
2999;DHT22;1509;51.964;7.628;2023-03-23T01:22:45;10.70;99.90
2999;DHT22;1509;51.964;7.628;2023-03-23T01:25:12;10.70;99.90
2999;DHT22;1509;51.964;7.628;2023-03-23T01:27:41;10.70;99.90
2999;DHT22;1509;51.964;7.628;2023-03-23T01:30:09;11.10;99.90
2999;DHT22;1509;51.964;7.628;2023-03-23T01:32:35;10.80;99.90
2999;DHT22;1509;51.964;7.628;2023-03-23T01:35:01;10.80;99.90
2999;DHT22;1509;51.964;7.628;2023-03-23T01:37:29;11.10;99.90
2999;DHT22;1509;51.964;7.628;2023-03-23T01:39:56;10.80;99.90
2999;DHT22;1509;51.964;7.628;2023-03-23T01:42:24;10.90;99.90
2999;DHT22;1509;51.964;7.628;2023-03-23T01:47:17;10.90;99.90
2999;DHT22;1509;51.964;7.628;2023-03-23T01:49:49;10.90;99.90
2999;DHT22;1509;51.964;7.628;2023-03-23T01:52:23;11.00;99.90
2999;DHT22;1509;51.964;7.628;2023-03-23T01:54:52;11.20;99.90
2999;DHT22;1509;51.964;7.628;2023-03-23T01:57:21;11.10;99.90
2999;DHT22;1509;51.964;7.628;2023-03-23T01:59:51;11.30;99.90
2999;DHT22;1509;51.964;7.628;2023-03-23T02:02:19;11.00;99.90
2999;DHT22;1509;51.964;7.628;2023-03-23T02:04:45;11.00;99.90
2999;DHT22;1509;51.964;7.628;2023-03-23T02:07:12;11.00;99.90
2999;DHT22;1509;51.964;7.628;2023-03-23T02:09:39;11.00;99.90
2999;DHT22;1509;51.964;7.628;2023-03-23T02:12:05;10.80;99.90
2999;DHT22;1509;51.964;7.628;2023-03-23T02:14:31;11.10;99.90
2999;DHT22;1509;51.964;7.628;2023-03-23T02:17:27;11.10;99.90
2999;DHT22;1509;51.964;7.628;2023-03-23T02:22:48;11.10;99.90
2999;DHT22;1509;51.964;7.628;2023-03-23T02:25:33;11.20;99.90
2999;DHT22;1509;51.964;7.628;2023-03-23T02:28:31;11.20;99.90
2999;DHT22;1509;51.964;7.628;2023-03-23T02:31:20;11.20;99.90
2999;DHT22;1509;51.964;7.628;2023-03-23T02:33:48;11.20;99.90
2999;DHT22;1509;51.964;7.628;2023-03-23T02:36:19;11.50;99.90
2999;DHT22;1509;51.964;7.628;2023-03-23T02:41:47;11.30;99.90
2999;DHT22;1509;51.964;7.628;2023-03-23T02:44:16;11.30;99.90
2999;DHT22;1509;51.964;7.628;2023-03-23T02:46:43;11.30;99.90
2999;DHT22;1509;51.964;7.628;2023-03-23T02:49:15;11.40;99.90
2999;DHT22;1509;51.964;7.628;2023-03-23T02:51:44;11.50;99.90
2999;DHT22;1509;51.964;7.628;2023-03-23T02:54:12;11.40;99.90
2999;DHT22;1509;51.964;7.628;2023-03-23T02:56:39;11.80;99.90
2999;DHT22;1509;51.964;7.628;2023-03-23T02:59:08;11.60;99.90
2999;DHT22;1509;51.964;7.628;2023-03-23T03:04:14;11.50;99.90
2999;DHT22;1509;51.964;7.628;2023-03-23T03:09:22;11.50;99.90
2999;DHT22;1509;51.964;7.628;2023-03-23T03:11:58;11.50;99.90
2999;DHT22;1509;51.964;7.628;2023-03-23T03:14:33;11.50;99.90
2999;DHT22;1509;51.964;7.628;2023-03-23T03:17:05;11.70;99.90
2999;DHT22;1509;51.964;7.628;2023-03-23T03:19:36;11.60;99.90
2999;DHT22;1509;51.964;7.628;2023-03-23T03:22:04;11.70;99.90
2999;DHT22;1509;51.964;7.628;2023-03-23T03:24:31;11.70;99.90
2999;DHT22;1509;51.964;7.628;2023-03-23T03:27:01;11.60;99.90
2999;DHT22;1509;51.964;7.628;2023-03-23T03:29:32;11.70;99.90
2999;DHT22;1509;51.964;7.628;2023-03-23T03:32:02;11.80;99.90
2999;DHT22;1509;51.964;7.628;2023-03-23T03:34:30;11.60;99.90
2999;DHT22;1509;51.964;7.628;2023-03-23T03:36:58;11.70;99.90
2999;DHT22;1509;51.964;7.628;2023-03-23T03:39:25;11.60;99.90
2999;DHT22;1509;51.964;7.628;2023-03-23T03:41:51;11.60;99.90
2999;DHT22;1509;51.964;7.628;2023-03-23T03:44:17;11.70;99.90
2999;DHT22;1509;51.964;7.628;2023-03-23T03:46:43;11.60;99.90
2999;DHT22;1509;51.964;7.628;2023-03-23T03:49:10;11.70;99.90
2999;DHT22;1509;51.964;7.628;2023-03-23T03:51:38;11.70;99.90
2999;DHT22;1509;51.964;7.628;2023-03-23T03:54:04;11.70;99.90
2999;DHT22;1509;51.964;7.628;2023-03-23T03:56:29;11.80;99.90
2999;DHT22;1509;51.964;7.628;2023-03-23T03:58:56;11.60;99.90
2999;DHT22;1509;51.964;7.628;2023-03-23T04:01:22;11.70;99.90
2999;DHT22;1509;51.964;7.628;2023-03-23T04:03:49;11.70;99.90
2999;DHT22;1509;51.964;7.628;2023-03-23T04:06:14;11.70;99.90
2999;DHT22;1509;51.964;7.628;2023-03-23T04:08:40;11.80;99.90
2999;DHT22;1509;51.964;7.628;2023-03-23T04:11:12;11.60;99.90
2999;DHT22;1509;51.964;7.628;2023-03-23T04:13:41;11.80;99.90
2999;DHT22;1509;51.964;7.628;2023-03-23T04:16:07;11.90;99.90
2999;DHT22;1509;51.964;7.628;2023-03-23T04:18:36;11.80;99.90
2999;DHT22;1509;51.964;7.628;2023-03-23T04:21:06;11.80;99.90
2999;DHT22;1509;51.964;7.628;2023-03-23T04:23:34;11.90;99.90
2999;DHT22;1509;51.964;7.628;2023-03-23T04:26:00;11.90;99.90
2999;DHT22;1509;51.964;7.628;2023-03-23T04:28:29;12.00;99.90
2999;DHT22;1509;51.964;7.628;2023-03-23T04:30:59;11.90;99.90
2999;DHT22;1509;51.964;7.628;2023-03-23T04:33:28;12.30;99.90
2999;DHT22;1509;51.964;7.628;2023-03-23T04:35:55;11.90;99.90
2999;DHT22;1509;51.964;7.628;2023-03-23T04:38:24;12.00;99.90
2999;DHT22;1509;51.964;7.628;2023-03-23T04:40:51;12.10;99.90
2999;DHT22;1509;51.964;7.628;2023-03-23T04:43:18;12.10;99.90
2999;DHT22;1509;51.964;7.628;2023-03-23T04:45:53;12.10;99.90
2999;DHT22;1509;51.964;7.628;2023-03-23T04:48:25;12.00;99.90
2999;DHT22;1509;51.964;7.628;2023-03-23T04:50:52;12.00;99.90
2999;DHT22;1509;51.964;7.628;2023-03-23T04:53:17;12.20;99.90
2999;DHT22;1509;51.964;7.628;2023-03-23T04:55:44;12.00;99.90
2999;DHT22;1509;51.964;7.628;2023-03-23T04:58:13;12.00;99.90
2999;DHT22;1509;51.964;7.628;2023-03-23T05:00:40;11.90;99.90
2999;DHT22;1509;51.964;7.628;2023-03-23T05:03:11;12.00;99.90
2999;DHT22;1509;51.964;7.628;2023-03-23T05:05:41;12.00;99.90
2999;DHT22;1509;51.964;7.628;2023-03-23T05:08:07;11.90;99.90
2999;DHT22;1509;51.964;7.628;2023-03-23T05:10:35;12.20;99.90
2999;DHT22;1509;51.964;7.628;2023-03-23T05:13:01;12.00;99.90
2999;DHT22;1509;51.964;7.628;2023-03-23T05:15:26;11.90;99.90
2999;DHT22;1509;51.964;7.628;2023-03-23T05:17:52;12.00;99.90
2999;DHT22;1509;51.964;7.628;2023-03-23T05:20:17;11.90;99.90
2999;DHT22;1509;51.964;7.628;2023-03-23T05:22:45;11.90;99.90
2999;DHT22;1509;51.964;7.628;2023-03-23T05:25:13;12.20;99.90
2999;DHT22;1509;51.964;7.628;2023-03-23T05:27:41;12.20;99.90
2999;DHT22;1509;51.964;7.628;2023-03-23T05:30:09;11.90;99.90
2999;DHT22;1509;51.964;7.628;2023-03-23T05:32:35;12.00;99.90
2999;DHT22;1509;51.964;7.628;2023-03-23T05:35:03;12.40;99.90
2999;DHT22;1509;51.964;7.628;2023-03-23T05:37:31;12.00;99.90
2999;DHT22;1509;51.964;7.628;2023-03-23T05:39:58;12.00;99.90
2999;DHT22;1509;51.964;7.628;2023-03-23T05:42:30;12.20;99.90
2999;DHT22;1509;51.964;7.628;2023-03-23T05:44:56;12.00;99.90
2999;DHT22;1509;51.964;7.628;2023-03-23T05:47:22;12.40;99.90
2999;DHT22;1509;51.964;7.628;2023-03-23T05:49:48;12.00;99.90
2999;DHT22;1509;51.964;7.628;2023-03-23T05:52:13;12.10;99.90
2999;DHT22;1509;51.964;7.628;2023-03-23T05:54:39;12.10;99.90
2999;DHT22;1509;51.964;7.628;2023-03-23T05:57:06;12.50;99.90
2999;DHT22;1509;51.964;7.628;2023-03-23T05:59:34;12.50;99.90
2999;DHT22;1509;51.964;7.628;2023-03-23T06:02:04;12.20;99.90
2999;DHT22;1509;51.964;7.628;2023-03-23T06:04:30;12.30;99.90
2999;DHT22;1509;51.964;7.628;2023-03-23T06:06:55;12.20;99.90
2999;DHT22;1509;51.964;7.628;2023-03-23T06:09:21;12.20;99.90
2999;DHT22;1509;51.964;7.628;2023-03-23T06:11:48;12.20;99.90
2999;DHT22;1509;51.964;7.628;2023-03-23T06:14:14;12.40;99.90
2999;DHT22;1509;51.964;7.628;2023-03-23T06:16:40;12.30;99.90
2999;DHT22;1509;51.964;7.628;2023-03-23T06:19:05;12.30;99.90
2999;DHT22;1509;51.964;7.628;2023-03-23T06:21:34;12.60;99.90
2999;DHT22;1509;51.964;7.628;2023-03-23T06:24:00;12.40;99.90
2999;DHT22;1509;51.964;7.628;2023-03-23T06:26:30;12.40;99.90
2999;DHT22;1509;51.964;7.628;2023-03-23T06:28:56;12.60;99.90
2999;DHT22;1509;51.964;7.628;2023-03-23T06:31:23;12.40;99.90
2999;DHT22;1509;51.964;7.628;2023-03-23T06:33:49;12.50;99.90
2999;DHT22;1509;51.964;7.628;2023-03-23T06:36:15;12.50;99.90
2999;DHT22;1509;51.964;7.628;2023-03-23T06:38:42;12.40;99.90
2999;DHT22;1509;51.964;7.628;2023-03-23T06:41:07;12.50;99.90
2999;DHT22;1509;51.964;7.628;2023-03-23T06:43:34;12.70;99.90
2999;DHT22;1509;51.964;7.628;2023-03-23T06:46:01;12.50;99.90
2999;DHT22;1509;51.964;7.628;2023-03-23T06:48:27;12.50;99.90
2999;DHT22;1509;51.964;7.628;2023-03-23T06:50:53;12.50;99.90
2999;DHT22;1509;51.964;7.628;2023-03-23T06:53:19;12.60;99.90
2999;DHT22;1509;51.964;7.628;2023-03-23T06:55:46;12.90;99.90
2999;DHT22;1509;51.964;7.628;2023-03-23T06:58:12;12.90;99.90
2999;DHT22;1509;51.964;7.628;2023-03-23T07:00:38;12.50;99.90
2999;DHT22;1509;51.964;7.628;2023-03-23T07:03:04;12.70;99.90
2999;DHT22;1509;51.964;7.628;2023-03-23T07:05:30;12.80;99.90
2999;DHT22;1509;51.964;7.628;2023-03-23T07:07:55;13.10;99.90
2999;DHT22;1509;51.964;7.628;2023-03-23T07:10:21;12.80;99.90
2999;DHT22;1509;51.964;7.628;2023-03-23T07:12:46;12.80;99.90
2999;DHT22;1509;51.964;7.628;2023-03-23T07:15:12;12.90;99.90
2999;DHT22;1509;51.964;7.628;2023-03-23T07:17:39;13.10;99.90
2999;DHT22;1509;51.964;7.628;2023-03-23T07:20:06;12.80;99.90
2999;DHT22;1509;51.964;7.628;2023-03-23T07:22:32;12.80;99.90
2999;DHT22;1509;51.964;7.628;2023-03-23T07:24:57;12.90;99.90
2999;DHT22;1509;51.964;7.628;2023-03-23T07:27:23;12.80;99.90
2999;DHT22;1509;51.964;7.628;2023-03-23T07:29:49;12.80;99.90
2999;DHT22;1509;51.964;7.628;2023-03-23T07:32:15;12.80;99.90
2999;DHT22;1509;51.964;7.628;2023-03-23T07:34:40;13.10;99.90
2999;DHT22;1509;51.964;7.628;2023-03-23T07:37:06;13.10;99.90
2999;DHT22;1509;51.964;7.628;2023-03-23T07:39:35;13.10;99.90
2999;DHT22;1509;51.964;7.628;2023-03-23T07:42:01;12.90;99.90
2999;DHT22;1509;51.964;7.628;2023-03-23T07:44:27;12.90;99.90
2999;DHT22;1509;51.964;7.628;2023-03-23T07:46:55;13.00;99.90
2999;DHT22;1509;51.964;7.628;2023-03-23T07:49:21;12.90;99.90
2999;DHT22;1509;51.964;7.628;2023-03-23T07:51:49;12.90;99.90
2999;DHT22;1509;51.964;7.628;2023-03-23T07:54:15;12.90;99.90
2999;DHT22;1509;51.964;7.628;2023-03-23T07:56:41;12.70;99.90
2999;DHT22;1509;51.964;7.628;2023-03-23T07:59:08;12.40;99.90
2999;DHT22;1509;51.964;7.628;2023-03-23T08:01:35;12.60;99.90
2999;DHT22;1509;51.964;7.628;2023-03-23T08:04:01;12.50;99.90
2999;DHT22;1509;51.964;7.628;2023-03-23T08:06:27;12.50;99.90
2999;DHT22;1509;51.964;7.628;2023-03-23T08:08:53;12.80;99.90
2999;DHT22;1509;51.964;7.628;2023-03-23T08:11:19;12.70;99.90
2999;DHT22;1509;51.964;7.628;2023-03-23T08:13:46;12.60;99.90
2999;DHT22;1509;51.964;7.628;2023-03-23T08:16:11;12.90;99.90
2999;DHT22;1509;51.964;7.628;2023-03-23T08:18:39;13.00;99.90
2999;DHT22;1509;51.964;7.628;2023-03-23T08:21:06;13.20;99.90
2999;DHT22;1509;51.964;7.628;2023-03-23T08:23:34;13.30;99.90
2999;DHT22;1509;51.964;7.628;2023-03-23T08:26:00;13.20;99.90
2999;DHT22;1509;51.964;7.628;2023-03-23T08:28:26;13.10;99.90
2999;DHT22;1509;51.964;7.628;2023-03-23T08:30:58;13.50;99.90
2999;DHT22;1509;51.964;7.628;2023-03-23T08:33:23;13.80;99.90
2999;DHT22;1509;51.964;7.628;2023-03-23T08:35:56;13.60;99.90
2999;DHT22;1509;51.964;7.628;2023-03-23T08:38:23;13.60;99.90
2999;DHT22;1509;51.964;7.628;2023-03-23T08:40:50;13.70;99.90
2999;DHT22;1509;51.964;7.628;2023-03-23T08:43:19;13.70;99.90
2999;DHT22;1509;51.964;7.628;2023-03-23T08:45:45;13.90;99.90
2999;DHT22;1509;51.964;7.628;2023-03-23T08:48:10;13.60;99.90
2999;DHT22;1509;51.964;7.628;2023-03-23T08:50:36;13.30;99.90
2999;DHT22;1509;51.964;7.628;2023-03-23T08:53:02;13.30;99.90
2999;DHT22;1509;51.964;7.628;2023-03-23T08:55:28;13.40;99.90
2999;DHT22;1509;51.964;7.628;2023-03-23T08:57:54;13.40;99.90
2999;DHT22;1509;51.964;7.628;2023-03-23T09:00:21;13.50;99.90
2999;DHT22;1509;51.964;7.628;2023-03-23T09:02:51;13.20;99.90
2999;DHT22;1509;51.964;7.628;2023-03-23T09:05:20;13.30;99.90
2999;DHT22;1509;51.964;7.628;2023-03-23T09:07:49;13.20;99.90
2999;DHT22;1509;51.964;7.628;2023-03-23T09:10:16;13.20;99.90
2999;DHT22;1509;51.964;7.628;2023-03-23T09:12:43;13.20;99.90
2999;DHT22;1509;51.964;7.628;2023-03-23T09:15:12;13.00;99.90
2999;DHT22;1509;51.964;7.628;2023-03-23T09:17:58;12.70;99.90
2999;DHT22;1509;51.964;7.628;2023-03-23T09:20:26;12.50;99.90
2999;DHT22;1509;51.964;7.628;2023-03-23T09:22:54;12.20;99.90
2999;DHT22;1509;51.964;7.628;2023-03-23T09:25:22;11.90;99.90
2999;DHT22;1509;51.964;7.628;2023-03-23T09:27:49;12.00;99.90
2999;DHT22;1509;51.964;7.628;2023-03-23T09:30:20;11.80;99.90
2999;DHT22;1509;51.964;7.628;2023-03-23T09:32:46;12.10;99.90
2999;DHT22;1509;51.964;7.628;2023-03-23T09:35:14;11.70;99.90
2999;DHT22;1509;51.964;7.628;2023-03-23T09:37:44;11.70;99.90
2999;DHT22;1509;51.964;7.628;2023-03-23T09:40:15;11.60;99.90
2999;DHT22;1509;51.964;7.628;2023-03-23T09:46:29;11.50;99.90
2999;DHT22;1509;51.964;7.628;2023-03-23T09:49:00;11.40;99.90
2999;DHT22;1509;51.964;7.628;2023-03-23T09:51:55;10.70;99.90
2999;DHT22;1509;51.964;7.628;2023-03-23T09:54:26;10.30;99.90
2999;DHT22;1509;51.964;7.628;2023-03-23T09:56:53;9.90;99.90
2999;DHT22;1509;51.964;7.628;2023-03-23T10:05:30;9.60;99.90
2999;DHT22;1509;51.964;7.628;2023-03-23T10:07:57;9.50;99.90
2999;DHT22;1509;51.964;7.628;2023-03-23T10:10:31;9.50;99.90
2999;DHT22;1509;51.964;7.628;2023-03-23T10:13:14;9.70;99.90
2999;DHT22;1509;51.964;7.628;2023-03-23T10:15:42;9.50;99.90
2999;DHT22;1509;51.964;7.628;2023-03-23T10:20:56;9.40;99.90
2999;DHT22;1509;51.964;7.628;2023-03-23T10:26:37;9.60;99.90
2999;DHT22;1509;51.964;7.628;2023-03-23T10:29:22;9.60;99.90
2999;DHT22;1509;51.964;7.628;2023-03-23T10:32:01;9.70;99.90
2999;DHT22;1509;51.964;7.628;2023-03-23T10:34:56;9.70;99.90
2999;DHT22;1509;51.964;7.628;2023-03-23T10:37:28;9.40;99.90
2999;DHT22;1509;51.964;7.628;2023-03-23T10:39:59;9.70;99.90
2999;DHT22;1509;51.964;7.628;2023-03-23T10:42:35;9.80;99.90
2999;DHT22;1509;51.964;7.628;2023-03-23T10:45:26;10.00;99.90
2999;DHT22;1509;51.964;7.628;2023-03-23T10:47:58;10.10;99.90
2999;DHT22;1509;51.964;7.628;2023-03-23T10:50:34;10.50;99.90
2999;DHT22;1509;51.964;7.628;2023-03-23T10:53:02;11.30;99.90
2999;DHT22;1509;51.964;7.628;2023-03-23T10:55:38;11.60;99.90
2999;DHT22;1509;51.964;7.628;2023-03-23T10:58:11;12.10;99.90
2999;DHT22;1509;51.964;7.628;2023-03-23T11:00:42;12.00;99.90
2999;DHT22;1509;51.964;7.628;2023-03-23T11:05:48;11.40;99.90
2999;DHT22;1509;51.964;7.628;2023-03-23T11:08:23;11.30;99.90
2999;DHT22;1509;51.964;7.628;2023-03-23T11:10:56;11.50;99.90
2999;DHT22;1509;51.964;7.628;2023-03-23T11:13:39;11.10;99.90
2999;DHT22;1509;51.964;7.628;2023-03-23T11:16:07;11.20;99.90
2999;DHT22;1509;51.964;7.628;2023-03-23T11:18:42;11.20;99.90
2999;DHT22;1509;51.964;7.628;2023-03-23T11:21:11;11.10;99.90
2999;DHT22;1509;51.964;7.628;2023-03-23T11:23:40;11.10;99.90
2999;DHT22;1509;51.964;7.628;2023-03-23T11:31:42;11.00;99.90
2999;DHT22;1509;51.964;7.628;2023-03-23T11:34:17;11.00;99.90
2999;DHT22;1509;51.964;7.628;2023-03-23T11:36:50;11.00;99.90
2999;DHT22;1509;51.964;7.628;2023-03-23T11:39:23;11.10;99.90
2999;DHT22;1509;51.964;7.628;2023-03-23T11:41:50;11.10;99.90
2999;DHT22;1509;51.964;7.628;2023-03-23T11:44:15;11.10;99.90
2999;DHT22;1509;51.964;7.628;2023-03-23T11:46:53;11.30;99.90
2999;DHT22;1509;51.964;7.628;2023-03-23T11:49:30;10.90;99.90
2999;DHT22;1509;51.964;7.628;2023-03-23T11:52:11;11.00;99.90
2999;DHT22;1509;51.964;7.628;2023-03-23T11:54:46;11.30;99.90
2999;DHT22;1509;51.964;7.628;2023-03-23T11:57:13;10.90;99.90
2999;DHT22;1509;51.964;7.628;2023-03-23T11:59:40;11.20;99.90
2999;DHT22;1509;51.964;7.628;2023-03-23T12:02:32;11.10;99.90
2999;DHT22;1509;51.964;7.628;2023-03-23T12:10:56;11.70;99.90
2999;DHT22;1509;51.964;7.628;2023-03-23T12:16:28;11.70;99.90
2999;DHT22;1509;51.964;7.628;2023-03-23T12:19:15;11.70;99.90
2999;DHT22;1509;51.964;7.628;2023-03-23T12:27:02;12.00;99.90
2999;DHT22;1509;51.964;7.628;2023-03-23T12:57:08;16.20;99.90
2999;DHT22;1509;51.964;7.628;2023-03-23T12:59:42;15.30;99.90
2999;DHT22;1509;51.964;7.628;2023-03-23T13:02:22;14.70;99.90
2999;DHT22;1509;51.964;7.628;2023-03-23T13:07:49;13.90;99.90
2999;DHT22;1509;51.964;7.628;2023-03-23T13:10:27;13.60;99.90
2999;DHT22;1509;51.964;7.628;2023-03-23T13:12:53;13.40;99.90
2999;DHT22;1509;51.964;7.628;2023-03-23T13:15:29;14.00;99.90
2999;DHT22;1509;51.964;7.628;2023-03-23T13:18:41;15.10;99.90
2999;DHT22;1509;51.964;7.628;2023-03-23T13:21:19;15.50;99.90
2999;DHT22;1509;51.964;7.628;2023-03-23T13:23:50;15.50;99.90
2999;DHT22;1509;51.964;7.628;2023-03-23T13:26:20;15.30;99.90
2999;DHT22;1509;51.964;7.628;2023-03-23T13:36:33;15.30;99.90
2999;DHT22;1509;51.964;7.628;2023-03-23T13:39:01;15.70;99.90
2999;DHT22;1509;51.964;7.628;2023-03-23T13:41:27;15.70;99.90
2999;DHT22;1509;51.964;7.628;2023-03-23T13:44:14;16.10;99.90
2999;DHT22;1509;51.964;7.628;2023-03-23T13:46:40;15.80;99.90
2999;DHT22;1509;51.964;7.628;2023-03-23T13:49:16;16.00;99.90
2999;DHT22;1509;51.964;7.628;2023-03-23T13:57:18;15.90;99.90
2999;DHT22;1509;51.964;7.628;2023-03-23T13:59:54;16.00;99.90
2999;DHT22;1509;51.964;7.628;2023-03-23T14:02:33;15.60;99.90
2999;DHT22;1509;51.964;7.628;2023-03-23T14:13:32;15.10;99.90
2999;DHT22;1509;51.964;7.628;2023-03-23T14:16:04;15.10;99.90
2999;DHT22;1509;51.964;7.628;2023-03-23T14:18:39;15.10;99.90
2999;DHT22;1509;51.964;7.628;2023-03-23T14:21:06;15.10;99.90
2999;DHT22;1509;51.964;7.628;2023-03-23T14:23:35;15.30;99.90
2999;DHT22;1509;51.964;7.628;2023-03-23T14:26:09;15.40;99.90
2999;DHT22;1509;51.964;7.628;2023-03-23T14:28:39;15.40;99.90
2999;DHT22;1509;51.964;7.628;2023-03-23T14:33:45;15.30;99.90
2999;DHT22;1509;51.964;7.628;2023-03-23T14:36:11;15.00;99.90
2999;DHT22;1509;51.964;7.628;2023-03-23T14:38:37;15.30;99.90
2999;DHT22;1509;51.964;7.628;2023-03-23T14:41:05;15.10;99.90
2999;DHT22;1509;51.964;7.628;2023-03-23T14:43:33;15.10;99.90
2999;DHT22;1509;51.964;7.628;2023-03-23T14:46:01;15.20;99.90
2999;DHT22;1509;51.964;7.628;2023-03-23T14:48:27;15.50;99.90
2999;DHT22;1509;51.964;7.628;2023-03-23T14:51:02;15.10;99.90
2999;DHT22;1509;51.964;7.628;2023-03-23T14:53:36;14.90;99.90
2999;DHT22;1509;51.964;7.628;2023-03-23T14:56:14;15.00;99.90
2999;DHT22;1509;51.964;7.628;2023-03-23T14:58:48;15.10;99.90
2999;DHT22;1509;51.964;7.628;2023-03-23T15:01:36;15.10;99.90
2999;DHT22;1509;51.964;7.628;2023-03-23T15:04:09;14.60;99.90
2999;DHT22;1509;51.964;7.628;2023-03-23T15:06:37;14.80;99.90
2999;DHT22;1509;51.964;7.628;2023-03-23T15:09:07;15.00;99.90
2999;DHT22;1509;51.964;7.628;2023-03-23T15:11:37;15.00;99.90
2999;DHT22;1509;51.964;7.628;2023-03-23T15:14:14;15.10;99.90
2999;DHT22;1509;51.964;7.628;2023-03-23T15:16:49;14.70;99.90
2999;DHT22;1509;51.964;7.628;2023-03-23T15:19:36;15.00;99.90
2999;DHT22;1509;51.964;7.628;2023-03-23T15:24:46;15.10;99.90
2999;DHT22;1509;51.964;7.628;2023-03-23T15:27:27;15.10;99.90
2999;DHT22;1509;51.964;7.628;2023-03-23T15:29:56;15.20;99.90
2999;DHT22;1509;51.964;7.628;2023-03-23T15:32:28;15.20;99.90
2999;DHT22;1509;51.964;7.628;2023-03-23T15:34:55;15.40;99.90
2999;DHT22;1509;51.964;7.628;2023-03-23T15:37:35;15.60;99.90
2999;DHT22;1509;51.964;7.628;2023-03-23T15:40:04;15.70;99.90
2999;DHT22;1509;51.964;7.628;2023-03-23T15:42:34;15.40;99.90
2999;DHT22;1509;51.964;7.628;2023-03-23T15:45:26;15.30;99.90
2999;DHT22;1509;51.964;7.628;2023-03-23T15:47:53;15.30;99.90
2999;DHT22;1509;51.964;7.628;2023-03-23T15:52:56;15.20;99.90
2999;DHT22;1509;51.964;7.628;2023-03-23T15:55:45;15.30;99.90
2999;DHT22;1509;51.964;7.628;2023-03-23T15:58:12;15.10;99.90
2999;DHT22;1509;51.964;7.628;2023-03-23T16:00:38;14.90;99.90
2999;DHT22;1509;51.964;7.628;2023-03-23T16:03:07;15.00;99.90
2999;DHT22;1509;51.964;7.628;2023-03-23T16:05:35;14.70;99.90
2999;DHT22;1509;51.964;7.628;2023-03-23T16:08:03;14.50;99.90
2999;DHT22;1509;51.964;7.628;2023-03-23T16:10:29;14.40;99.90
2999;DHT22;1509;51.964;7.628;2023-03-23T16:12:55;14.40;99.90
2999;DHT22;1509;51.964;7.628;2023-03-23T16:15:21;14.40;99.90
2999;DHT22;1509;51.964;7.628;2023-03-23T16:17:47;14.30;99.90
2999;DHT22;1509;51.964;7.628;2023-03-23T16:20:18;14.20;99.90
2999;DHT22;1509;51.964;7.628;2023-03-23T16:22:45;14.10;99.90
2999;DHT22;1509;51.964;7.628;2023-03-23T16:25:11;14.20;99.90
2999;DHT22;1509;51.964;7.628;2023-03-23T16:27:38;14.20;99.90
2999;DHT22;1509;51.964;7.628;2023-03-23T16:30:15;14.20;99.90
2999;DHT22;1509;51.964;7.628;2023-03-23T16:32:42;14.10;99.90
2999;DHT22;1509;51.964;7.628;2023-03-23T16:35:09;14.10;99.90
2999;DHT22;1509;51.964;7.628;2023-03-23T16:37:38;14.00;99.90
2999;DHT22;1509;51.964;7.628;2023-03-23T16:40:04;14.10;99.90
2999;DHT22;1509;51.964;7.628;2023-03-23T16:42:30;14.20;99.90
2999;DHT22;1509;51.964;7.628;2023-03-23T16:44:56;14.30;99.90
2999;DHT22;1509;51.964;7.628;2023-03-23T16:47:21;14.30;99.90
2999;DHT22;1509;51.964;7.628;2023-03-23T16:49:50;14.20;99.90
2999;DHT22;1509;51.964;7.628;2023-03-23T16:52:16;14.20;99.90
2999;DHT22;1509;51.964;7.628;2023-03-23T16:54:42;14.10;99.90
2999;DHT22;1509;51.964;7.628;2023-03-23T16:57:07;14.00;99.90
2999;DHT22;1509;51.964;7.628;2023-03-23T16:59:33;14.00;99.90
2999;DHT22;1509;51.964;7.628;2023-03-23T17:01:59;13.80;99.90
2999;DHT22;1509;51.964;7.628;2023-03-23T17:04:28;13.70;99.90
2999;DHT22;1509;51.964;7.628;2023-03-23T17:06:54;13.50;99.90
2999;DHT22;1509;51.964;7.628;2023-03-23T17:09:20;13.40;99.90
2999;DHT22;1509;51.964;7.628;2023-03-23T17:11:49;13.30;99.90
2999;DHT22;1509;51.964;7.628;2023-03-23T17:14:17;13.10;99.90
2999;DHT22;1509;51.964;7.628;2023-03-23T17:16:43;13.20;99.90
2999;DHT22;1509;51.964;7.628;2023-03-23T17:19:08;13.10;99.90
2999;DHT22;1509;51.964;7.628;2023-03-23T17:21:34;13.00;99.90
2999;DHT22;1509;51.964;7.628;2023-03-23T17:24:00;13.00;99.90
2999;DHT22;1509;51.964;7.628;2023-03-23T17:26:26;12.90;99.90
2999;DHT22;1509;51.964;7.628;2023-03-23T17:28:52;12.90;99.90
2999;DHT22;1509;51.964;7.628;2023-03-23T17:31:17;12.70;99.90
2999;DHT22;1509;51.964;7.628;2023-03-23T17:33:43;12.70;99.90
2999;DHT22;1509;51.964;7.628;2023-03-23T17:36:09;12.60;99.90
2999;DHT22;1509;51.964;7.628;2023-03-23T17:38:34;12.60;99.90
2999;DHT22;1509;51.964;7.628;2023-03-23T17:41:01;12.50;99.90
2999;DHT22;1509;51.964;7.628;2023-03-23T17:43:31;12.50;99.90
2999;DHT22;1509;51.964;7.628;2023-03-23T17:45:57;12.60;99.90
2999;DHT22;1509;51.964;7.628;2023-03-23T17:48:23;12.60;99.90
2999;DHT22;1509;51.964;7.628;2023-03-23T17:50:53;12.60;99.90
2999;DHT22;1509;51.964;7.628;2023-03-23T17:53:23;12.60;99.90
2999;DHT22;1509;51.964;7.628;2023-03-23T17:55:52;12.50;99.90
2999;DHT22;1509;51.964;7.628;2023-03-23T17:58:18;12.70;99.90
2999;DHT22;1509;51.964;7.628;2023-03-23T18:00:44;12.50;99.90
2999;DHT22;1509;51.964;7.628;2023-03-23T18:03:09;12.50;99.90
2999;DHT22;1509;51.964;7.628;2023-03-23T18:05:35;12.50;99.90
2999;DHT22;1509;51.964;7.628;2023-03-23T18:08:04;12.50;99.90
2999;DHT22;1509;51.964;7.628;2023-03-23T18:10:30;12.50;99.90